This is the latest recevied weather packets stored in our database for station/object AD8IZ-13. If no packets are shown the sender has not sent any weather packets the latest 10 day(s).
| Time | Temp. | Humidity | Pressure | Rain* | Wind** | Luminosity | Snow |
|---|---|---|---|---|---|---|---|
| 1777660521 | 11.11° C | 81% | 1012.1 hPa | 0 mm | - | 652 W/m² | - |
| 1777659359 | 11.11° C | 85% | 1012 hPa | 0 mm | - | 669 W/m² | - |
| 1777654528 | 8.89° C | 94% | 1012 hPa | 1.02 mm | - | 169 W/m² | - |
| 1777653927 | 8.33° C | 95% | 1011.9 hPa | 1.27 mm | - | 247 W/m² | - |
| 1777652726 | 7.78° C | 95% | 1012.1 hPa | 1.27 mm | - | 94 W/m² | - |
| 1777651526 | 7.78° C | 95% | 1012.5 hPa | 1.27 mm | - | 82 W/m² | - |
| 1777650926 | 7.78° C | 94% | 1012.4 hPa | 1.02 mm | - | 75 W/m² | - |
| 1777649728 | 7.78° C | 94% | 1012.2 hPa | 0.51 mm | - | 77 W/m² | - |
| 1777649127 | 7.78° C | 93% | 1012.2 hPa | 1.02 mm | - | 90 W/m² | - |
| 1777648527 | 7.78° C | 93% | 1012.2 hPa | 1.02 mm | - | 70 W/m² | - |
| 1777647927 | 7.78° C | 92% | 1012.4 hPa | 1.02 mm | - | 57 W/m² | - |
| 1777647327 | 7.78° C | 91% | 1012.4 hPa | 0.76 mm | - | 60 W/m² | - |
| 1777646729 | 7.78° C | 91% | 1012.4 hPa | 0.76 mm | - | 50 W/m² | - |
| 1777646128 | 7.78° C | 91% | 1012.5 hPa | 0.76 mm | - | 77 W/m² | - |
| 1777645528 | 7.78° C | 91% | 1012.5 hPa | 0.51 mm | - | 67 W/m² | - |
| 1777644929 | 7.22° C | 90% | 1012.4 hPa | 0.51 mm | - | 97 W/m² | - |
| 1777644328 | 7.22° C | 90% | 1012.4 hPa | 0.25 mm | - | 54 W/m² | - |
| 1777643728 | 7.22° C | 89% | 1012.3 hPa | 0.25 mm | - | 37 W/m² | - |
| 1777643130 | 7.22° C | 90% | 1012.3 hPa | 0.51 mm | - | 62 W/m² | - |
| 1777642529 | 7.22° C | 90% | 1012.4 hPa | 0.51 mm | - | 70 W/m² | - |
| 1777641931 | 7.22° C | 89% | 1012.8 hPa | 0.51 mm | - | 104 W/m² | - |
| 1777641336 | 7.22° C | 88% | 1012.8 hPa | 0.25 mm | - | 36 W/m² | - |
| 1777640729 | 7.22° C | 87% | 1013.1 hPa | 0.25 mm | - | 37 W/m² | - |
| 1777638330 | 7.22° C | 84% | 1012.8 hPa | 0 mm | - | 56 W/m² | - |
| 1777637730 | 7.22° C | 86% | 1012.7 hPa | 0 mm | - | 42 W/m² | - |
* Rain latest hour (hover to see other rain measurements)
** Current wind speed in m/s (hover to see current wind gust speed)